Observation data for Turkey on 06/19/2019      Previous  Date       Current Mesonet Observations  Soil Data  Daily Summary Page  Observations in Plain Language
KTUR 190500Z 18008KT 20/15 A2986 RMK A01 T02030153  RH  075%=      5-min Rain = 0
KTUR 190505Z 18008KT 20/15 A2985 RMK A01 T02030153  RH  075%=      5-min Rain = 0
KTUR 190510Z 18008KT 20/15 A2985 RMK A01 T02020152  RH  075%=      5-min Rain = 0
KTUR 190515Z 19009KT 20/15 A2985 RMK A01 T02010152  RH  075%=      5-min Rain = 0
KTUR 190520Z 20010KT 20/15 A2985 RMK A01 T02000150  RH  075%=      5-min Rain = 0
KTUR 190525Z 20010KT 20/15 A2985 RMK A01 T02020149  RH  073%=      5-min Rain = 0
KTUR 190530Z 21010KT 21/15 A2984 RMK A01 T02050149  RH  071%=      5-min Rain = 0
KTUR 190535Z 22010KT 21/15 A2984 RMK A01 T02060151  RH  072%=      5-min Rain = 0
KTUR 190540Z 22012KT 21/15 A2984 RMK A01 T02080150  RH  071%=      5-min Rain = 0
KTUR 190545Z 21013KT 21/15 A2985 RMK A01 T02130149  RH  068%=      5-min Rain = 0
KTUR 190550Z 22013KT 22/15 A2985 RMK A01 T02190149  RH  066%=      5-min Rain = 0
KTUR 190555Z 21010KT 22/15 A2985 RMK A01 T02210150  RH  066%=      5-min Rain = 0
KTUR 190600Z 19010G15KT 22/15 A2985 RMK A01 T02220151  RH  066%=      5-min Rain = 0
KTUR 190605Z 18013KT 24/15 A2985 RMK A01 T02350153  RH  061%=      5-min Rain = 0
KTUR 190610Z 18016G21KT 24/15 A2985 RMK A01 T02420154  RH  059%=      5-min Rain = 0
KTUR 190615Z 18015G20KT 24/15 A2985 RMK A01 T02420154  RH  059%=      5-min Rain = 0
KTUR 190620Z 18015KT 24/15 A2985 RMK A01 T02400153  RH  060%=      5-min Rain = 0
KTUR 190625Z 17014KT 24/15 A2986 RMK A01 T02390153  RH  060%=      5-min Rain = 0
KTUR 190630Z 17014G19KT 24/15 A2987 RMK A01 T02390153  RH  060%=      5-min Rain = 0
KTUR 190635Z 17010G15KT 24/15 A2988 RMK A01 T02380154  RH  061%=      5-min Rain = 0
KTUR 190640Z 18003G8KT 24/15 A2989 RMK A01 T02360154  RH  061%=      5-min Rain = 0
KTUR 190645Z 00006KT 23/16 A2991 RMK A01 T02320156  RH  064%=      5-min Rain = 0
KTUR 190650Z 01012KT 23/16 A2992 RMK A01 T02250157  RH  067%=      5-min Rain = 0
KTUR 190655Z 02013KT 22/15 A2992 RMK A01 T02160154  RH  069%=      5-min Rain = 0
KTUR 190700Z 02012KT 21/15 A2992 RMK A01 T02120153  RH  071%=      5-min Rain = 0
KTUR 190705Z 01013KT 21/15 A2991 RMK A01 T02110152  RH  071%=      5-min Rain = 0
KTUR 190710Z 01014KT 21/15 A2991 RMK A01 T02100150  RH  070%=      5-min Rain = 0
KTUR 190715Z 02011G16KT 21/15 A2991 RMK A01 T02090150  RH  070%=      5-min Rain = 0
KTUR 190720Z 04005KT 21/15 A299 RMK A01 T02100150  RH  070%=      5-min Rain = 0
KTUR 190725Z 04007KT 21/15 A299 RMK A01 T02090151  RH  071%=      5-min Rain = 0
KTUR 190730Z 02007KT 21/15 A299 RMK A01 T02080151  RH  071%=      5-min Rain = 0
KTUR 190735Z 36005KT 20/15 A299 RMK A01 T02040151  RH  073%=      5-min Rain = 0
KTUR 190740Z 35005KT 20/15 A299 RMK A01 T02020151  RH  074%=      5-min Rain = 0
KTUR 190745Z 32005KT 20/15 A299 RMK A01 T01990152  RH  076%=      5-min Rain = 0
KTUR 190750Z 35007KT 20/15 A299 RMK A01 T01960151  RH  077%=      5-min Rain = 0
KTUR 190755Z 02006KT 20/15 A299 RMK A01 T01980149  RH  075%=      5-min Rain = 0
KTUR 190800Z 06005KT 20/15 A2989 RMK A01 T02000148  RH  074%=      5-min Rain = 0
KTUR 190805Z 06005KT 20/15 A2989 RMK A01 T02000147  RH  073%=      5-min Rain = 0
KTUR 190810Z 06005KT 20/15 A2989 RMK A01 T02000148  RH  074%=      5-min Rain = 0
KTUR 190815Z 04005KT 20/15 A2989 RMK A01 T01960150  RH  076%=      5-min Rain = 0
KTUR 190820Z 03005KT 19/15 A2989 RMK A01 T01900152  RH  080%=      5-min Rain = 0
KTUR 190825Z 02003KT 19/15 A2988 RMK A01 T01870150  RH  081%=      5-min Rain = 0
KTUR 190830Z 06004KT 19/15 A2988 RMK A01 T01900148  RH  078%=      5-min Rain = 0
KTUR 190835Z 09004KT 20/15 A2988 RMK A01 T01950145  RH  074%=      5-min Rain = 0
KTUR 190840Z 08004KT 20/15 A2988 RMK A01 T01960145  RH  074%=      5-min Rain = 0
KTUR 190845Z 07005KT 19/15 A2988 RMK A01 T01930146  RH  076%=      5-min Rain = 0
KTUR 190850Z 09005KT 19/15 A2988 RMK A01 T01920146  RH  076%=      5-min Rain = 0
KTUR 190855Z 10003KT 19/15 A2988 RMK A01 T01920145  RH  076%=      5-min Rain = 0
KTUR 190900Z 16002KT 19/15 A2988 RMK A01 T01920146  RH  076%=      5-min Rain = 0
KTUR 190905Z 15004KT 19/15 A2987 RMK A01 T01920149  RH  078%=      5-min Rain = 0
KTUR 190910Z 16003KT 19/15 A2987 RMK A01 T01880150  RH  080%=      5-min Rain = 0
KTUR 190915Z 14002KT 19/15 A2988 RMK A01 T01880148  RH  080%=      5-min Rain = 0
KTUR 190920Z 14000KT 19/15 A2988 RMK A01 T01860149  RH  081%=      5-min Rain = 0
KTUR 190925Z 18002KT 18/15 A2988 RMK A01 T01830149  RH  083%=      5-min Rain = 0
KTUR 190930Z 18005KT 18/15 A2988 RMK A01 T01820151  RH  084%=      5-min Rain = 0
KTUR 190935Z 19006KT 18/15 A2988 RMK A01 T01830150  RH  083%=      5-min Rain = 0
KTUR 190940Z 19006KT 18/15 A2988 RMK A01 T01840148  RH  081%=      5-min Rain = 0
KTUR 190945Z 19005KT 18/15 A2988 RMK A01 T01840147  RH  081%=      5-min Rain = 0
KTUR 190950Z 18004KT 18/15 A2988 RMK A01 T01840147  RH  081%=      5-min Rain = 0
KTUR 190955Z 16005KT 18/15 A2988 RMK A01 T01830148  RH  082%=      5-min Rain = 0
KTUR 191000Z 16006KT 18/15 A2987 RMK A01 T01840149  RH  082%=      5-min Rain = 0
KTUR 191005Z 15008KT 19/15 A2986 RMK A01 T01850149  RH  081%=      5-min Rain = 0
KTUR 191010Z 15008KT 19/15 A2986 RMK A01 T01880146  RH  078%=      5-min Rain = 0
KTUR 191015Z 16009KT 19/15 A2985 RMK A01 T01890145  RH  077%=      5-min Rain = 0
KTUR 191020Z 15009KT 19/14 A2985 RMK A01 T01900144  RH  076%=      5-min Rain = 0
KTUR 191025Z 14009KT 19/14 A2985 RMK A01 T01900144  RH  076%=      5-min Rain = 0
KTUR 191030Z 13007KT 19/15 A2985 RMK A01 T01880145  RH  077%=      5-min Rain = 0
KTUR 191035Z 13006KT 19/15 A2985 RMK A01 T01850146  RH  079%=      5-min Rain = 0
KTUR 191040Z 13006KT 18/15 A2985 RMK A01 T01830146  RH  081%=      5-min Rain = 0
KTUR 191045Z 15005KT 18/15 A2985 RMK A01 T01830146  RH  081%=      5-min Rain = 0
KTUR 191050Z 16006KT 18/15 A2985 RMK A01 T01840145  RH  080%=      5-min Rain = 0
KTUR 191055Z 15006KT 19/15 A2985 RMK A01 T01850145  RH  079%=      5-min Rain = 0
KTUR 191100Z 16006KT 18/15 A2985 RMK A01 T01830145  RH  080%=      5-min Rain = 0
KTUR 191105Z 15006KT 18/15 A2986 RMK A01 T01820145  RH  081%=      5-min Rain = 0
KTUR 191110Z 13005KT 18/15 A2986 RMK A01 T01810145  RH  081%=      5-min Rain = 0
KTUR 191115Z 12005KT 18/15 A2986 RMK A01 T01810145  RH  081%=      5-min Rain = 0
KTUR 191120Z 12005KT 18/15 A2986 RMK A01 T01770145  RH  083%=      5-min Rain = 0
KTUR 191125Z 15006KT 18/14 A2986 RMK A01 T01760144  RH  083%=      5-min Rain = 0
KTUR 191130Z 15007KT 18/15 A2986 RMK A01 T01780145  RH  083%=      5-min Rain = 0
KTUR 191135Z 15008KT 18/14 A2986 RMK A01 T01800143  RH  081%=      5-min Rain = 0
KTUR 191140Z 15008KT 19/14 A2986 RMK A01 T01850143  RH  078%=      5-min Rain = 0
KTUR 191145Z 15008KT 19/14 A2986 RMK A01 T01850142  RH  078%=      5-min Rain = 0
KTUR 191150Z 14006KT 19/14 A2986 RMK A01 T01860143  RH  078%=      5-min Rain = 0
KTUR 191155Z 08004KT 18/14 A2986 RMK A01 T01800144  RH  081%=      5-min Rain = 0
KTUR 191200Z 11006KT 18/14 A2986 RMK A01 T01780144  RH  082%=      5-min Rain = 0
KTUR 191205Z 13007KT 18/14 A2986 RMK A01 T01810144  RH  081%=      5-min Rain = 0
KTUR 191210Z 15007KT 18/14 A2986 RMK A01 T01830144  RH  080%=      5-min Rain = 0
KTUR 191215Z 16006KT 18/15 A2986 RMK A01 T01840145  RH  079%=      5-min Rain = 0
KTUR 191220Z 16006KT 19/15 A2986 RMK A01 T01870146  RH  079%=      5-min Rain = 0
KTUR 191225Z 15007KT 19/15 A2986 RMK A01 T01890145  RH  077%=      5-min Rain = 0
KTUR 191230Z 15007KT 19/15 A2986 RMK A01 T01910146  RH  076%=      5-min Rain = 0
KTUR 191235Z 16006KT 19/15 A2986 RMK A01 T01930147  RH  076%=      5-min Rain = 0
KTUR 191240Z 16007KT 19/15 A2986 RMK A01 T01940146  RH  075%=      5-min Rain = 0
KTUR 191245Z 16007KT 20/15 A2986 RMK A01 T01960146  RH  075%=      5-min Rain = 0
KTUR 191250Z 15007KT 20/15 A2987 RMK A01 T01980147  RH  074%=      5-min Rain = 0
KTUR 191255Z 14007KT 20/15 A2987 RMK A01 T02000148  RH  074%=      5-min Rain = 0
KTUR 191300Z 13007KT 20/15 A2987 RMK A01 T02010147  RH  073%=      5-min Rain = 0
KTUR 191305Z 14007KT 20/15 A2987 RMK A01 T02030148  RH  072%=      5-min Rain = 0
KTUR 191310Z 15008KT 20/15 A2987 RMK A01 T02040147  RH  071%=      5-min Rain = 0
KTUR 191315Z 14008KT 21/15 A2987 RMK A01 T02060148  RH  071%=      5-min Rain = 0
KTUR 191320Z 14008KT 21/15 A2987 RMK A01 T02080148  RH  070%=      5-min Rain = 0
KTUR 191325Z 15008KT 21/15 A2987 RMK A01 T02100149  RH  069%=      5-min Rain = 0
KTUR 191330Z 15008KT 21/15 A2987 RMK A01 T02130150  RH  069%=      5-min Rain = 0
KTUR 191335Z 15008KT 22/15 A2987 RMK A01 T02160150  RH  067%=      5-min Rain = 0
KTUR 191340Z 15010KT 22/15 A2987 RMK A01 T02190148  RH  065%=      5-min Rain = 0
KTUR 191345Z 15011KT 22/15 A2987 RMK A01 T02210147  RH  064%=      5-min Rain = 0
KTUR 191350Z 15011KT 22/15 A2987 RMK A01 T02230146  RH  063%=      5-min Rain = 0
KTUR 191355Z 14011KT 23/15 A2987 RMK A01 T02250147  RH  063%=      5-min Rain = 0
KTUR 191400Z 15011KT 23/15 A2987 RMK A01 T02250147  RH  063%=      5-min Rain = 0
KTUR 191405Z 15010KT 23/15 A2987 RMK A01 T02270147  RH  062%=      5-min Rain = 0
KTUR 191410Z 15010KT 23/15 A2987 RMK A01 T02290148  RH  062%=      5-min Rain = 0
KTUR 191415Z 15009KT 23/15 A2987 RMK A01 T02310148  RH  061%=      5-min Rain = 0
KTUR 191420Z 15007KT 23/15 A2988 RMK A01 T02340150  RH  061%=      5-min Rain = 0
KTUR 191425Z 14007KT 24/15 A2988 RMK A01 T02350150  RH  060%=      5-min Rain = 0
KTUR 191430Z 15008KT 24/15 A2987 RMK A01 T02350150  RH  060%=      5-min Rain = 0
KTUR 191435Z 16006KT 24/15 A2987 RMK A01 T02360150  RH  060%=      5-min Rain = 0
KTUR 191440Z 16007KT 24/15 A2987 RMK A01 T02380152  RH  060%=      5-min Rain = 0
KTUR 191445Z 14007KT 24/15 A2987 RMK A01 T02400152  RH  059%=      5-min Rain = 0
KTUR 191450Z 14007KT 24/15 A2987 RMK A01 T02420153  RH  059%=      5-min Rain = 0
KTUR 191455Z 13004KT 24/15 A2987 RMK A01 T02440154  RH  058%=      5-min Rain = 0
KTUR 191500Z 13005KT 25/15 A2987 RMK A01 T02450153  RH  058%=      5-min Rain = 0
KTUR 191505Z 16002KT 25/15 A2987 RMK A01 T02460154  RH  058%=      5-min Rain = 0
KTUR 191510Z 14005KT 25/16 A2987 RMK A01 T02510158  RH  058%=      5-min Rain = 0
KTUR 191515Z 17004KT 25/16 A2987 RMK A01 T02520158  RH  057%=      5-min Rain = 0
KTUR 191520Z 16004KT 25/16 A2987 RMK A01 T02520159  RH  057%=      5-min Rain = 0
KTUR 191525Z 15003KT 25/16 A2987 RMK A01 T02540157  RH  056%=      5-min Rain = 0
KTUR 191530Z 15003KT 26/16 A2987 RMK A01 T02590160  RH  056%=      5-min Rain = 0
KTUR 191535Z 21008G14KT 26/16 A2986 RMK A01 T02610161  RH  055%=      5-min Rain = 0
KTUR 191540Z 19008G13KT 26/16 A2986 RMK A01 T02620160  RH  055%=      5-min Rain = 0
KTUR 191545Z 22009G16KT 26/16 A2985 RMK A01 T02630162  RH  055%=      5-min Rain = 0
KTUR 191550Z 20008G14KT 27/16 A2985 RMK A01 T02670163  RH  054%=      5-min Rain = 0
KTUR 191555Z 21007KT 27/16 A2986 RMK A01 T02670164  RH  054%=      5-min Rain = 0
KTUR 191600Z 22006G12KT 27/16 A2986 RMK A01 T02650162  RH  054%=      5-min Rain = 0
KTUR 191605Z 24007KT 27/16 A2986 RMK A01 T02680163  RH  054%=      5-min Rain = 0
KTUR 191610Z 23006KT 27/17 A2986 RMK A01 T02690166  RH  054%=      5-min Rain = 0
KTUR 191615Z 23006KT 27/17 A2986 RMK A01 T02710166  RH  054%=      5-min Rain = 0
KTUR 191620Z 24006G11KT 27/17 A2986 RMK A01 T02710167  RH  054%=      5-min Rain = 0
KTUR 191625Z 25008KT 28/17 A2986 RMK A01 T02750167  RH  053%=      5-min Rain = 0
KTUR 191630Z 26005KT 27/17 A2986 RMK A01 T02740165  RH  053%=      5-min Rain = 0
KTUR 191635Z 24004KT 28/17 A2986 RMK A01 T02750167  RH  053%=      5-min Rain = 0
KTUR 191640Z 26005G11KT 28/17 A2986 RMK A01 T02750165  RH  052%=      5-min Rain = 0
KTUR 191645Z 23007KT 28/16 A2986 RMK A01 T02760164  RH  052%=      5-min Rain = 0
KTUR 191650Z 21003KT 27/16 A2986 RMK A01 T02730162  RH  052%=      5-min Rain = 0
KTUR 191655Z 21004G10KT 28/17 A2986 RMK A01 T02760165  RH  052%=      5-min Rain = 0
KTUR 191700Z 22006KT 28/17 A2985 RMK A01 T02790167  RH  052%=      5-min Rain = 0
KTUR 191705Z 22007KT 28/17 A2985 RMK A01 T02800168  RH  052%=      5-min Rain = 0
KTUR 191710Z 22004KT 28/17 A2985 RMK A01 T02810169  RH  052%=      5-min Rain = 0
KTUR 191715Z 23006KT 29/17 A2985 RMK A01 T02850169  RH  051%=      5-min Rain = 0
KTUR 191720Z 25007KT 29/17 A2985 RMK A01 T02850167  RH  050%=      5-min Rain = 0
KTUR 191725Z 26004KT 28/17 A2985 RMK A01 T02830166  RH  050%=      5-min Rain = 0
KTUR 191730Z 28006G11KT 29/17 A2985 RMK A01 T02850167  RH  050%=      5-min Rain = 0
KTUR 191735Z 28005KT 28/17 A2985 RMK A01 T02840167  RH  050%=      5-min Rain = 0
KTUR 191740Z 28005KT 28/17 A2985 RMK A01 T02840166  RH  050%=      5-min Rain = 0
KTUR 191745Z 29005KT 29/17 A2984 RMK A01 T02870168  RH  050%=      5-min Rain = 0
KTUR 191750Z 24001KT 29/17 A2984 RMK A01 T02880169  RH  050%=      5-min Rain = 0
KTUR 191755Z 22003KT 29/17 A2984 RMK A01 T02890168  RH  049%=      5-min Rain = 0
KTUR 191800Z 22002KT 29/17 A2984 RMK A01 T02880166  RH  049%=      5-min Rain = 0
KTUR 191805Z 30002KT 29/17 A2984 RMK A01 T02890165  RH  048%=      5-min Rain = 0
KTUR 191810Z 35002KT 29/17 A2984 RMK A01 T02890166  RH  048%=      5-min Rain = 0
KTUR 191815Z 32002KT 29/17 A2983 RMK A01 T02920168  RH  048%=      5-min Rain = 0
KTUR 191820Z 32001KT 30/17 A2983 RMK A01 T02950167  RH  047%=      5-min Rain = 0
KTUR 191825Z 36001KT 30/17 A2983 RMK A01 T03000170  RH  047%=      5-min Rain = 0
KTUR 191830Z 33005KT 30/17 A2983 RMK A01 T03020169  RH  046%=      5-min Rain = 0
KTUR 191835Z 34006KT 30/17 A2983 RMK A01 T03000165  RH  045%=      5-min Rain = 0
KTUR 191840Z 30004KT 30/16 A2983 RMK A01 T02990162  RH  045%=      5-min Rain = 0
KTUR 191845Z 24001KT 30/16 A2983 RMK A01 T02990161  RH  044%=      5-min Rain = 0
KTUR 191850Z 34004KT 30/17 A2983 RMK A01 T03030167  RH  045%=      5-min Rain = 0
KTUR 191855Z 36004G9KT 31/17 A2983 RMK A01 T03060169  RH  045%=      5-min Rain = 0
KTUR 191900Z 01005KT 31/17 A2983 RMK A01 T03080168  RH  044%=      5-min Rain = 0
KTUR 191905Z 04004KT 31/17 A2983 RMK A01 T03060165  RH  044%=      5-min Rain = 0
KTUR 191910Z 34007KT 30/17 A2983 RMK A01 T03040166  RH  045%=      5-min Rain = 0
KTUR 191915Z 35006KT 31/16 A2982 RMK A01 T03060164  RH  044%=      5-min Rain = 0
KTUR 191920Z 02006KT 31/16 A2982 RMK A01 T03060164  RH  043%=      5-min Rain = 0
KTUR 191925Z 35006KT 31/16 A2982 RMK A01 T03070164  RH  043%=      5-min Rain = 0
KTUR 191930Z 35006G11KT 31/17 A2982 RMK A01 T03100167  RH  043%=      5-min Rain = 0
KTUR 191935Z 00006KT 31/17 A2982 RMK A01 T03090166  RH  043%=      5-min Rain = 0
KTUR 191940Z 04006KT 31/16 A2982 RMK A01 T03070161  RH  043%=      5-min Rain = 0
KTUR 191945Z 33006G12KT 31/16 A2982 RMK A01 T03080158  RH  041%=      5-min Rain = 0
KTUR 191950Z 31007KT 31/16 A2982 RMK A01 T03080155  RH  041%=      5-min Rain = 0
KTUR 191955Z 30006G11KT 31/15 A2982 RMK A01 T03100154  RH  040%=      5-min Rain = 0
KTUR 192000Z 27003KT 31/15 A2982 RMK A01 T03110154  RH  040%=      5-min Rain = 0
KTUR 192005Z 01004KT 31/16 A2982 RMK A01 T03120160  RH  041%=      5-min Rain = 0
KTUR 192010Z 34008KT 32/17 A2982 RMK A01 T03150166  RH  042%=      5-min Rain = 0
KTUR 192015Z 32006G11KT 31/16 A2982 RMK A01 T03130162  RH  041%=      5-min Rain = 0
KTUR 192020Z 31006KT 31/16 A2982 RMK A01 T03130164  RH  042%=      5-min Rain = 0
KTUR 192025Z 35009G14KT 31/16 A2982 RMK A01 T03100160  RH  042%=      5-min Rain = 0
KTUR 192030Z 00007KT 31/16 A2982 RMK A01 T03060157  RH  042%=      5-min Rain = 0
KTUR 192035Z 34005KT 31/16 A2982 RMK A01 T03100160  RH  041%=      5-min Rain = 0
KTUR 192040Z 32009KT 31/16 A2982 RMK A01 T03120163  RH  042%=      5-min Rain = 0
KTUR 192045Z 32007KT 31/16 A2982 RMK A01 T03110160  RH  041%=      5-min Rain = 0
KTUR 192050Z 31007KT 31/16 A2982 RMK A01 T03120160  RH  041%=      5-min Rain = 0
KTUR 192055Z 32009KT 31/16 A2982 RMK A01 T03140160  RH  040%=      5-min Rain = 0
KTUR 192100Z 32007KT 31/16 A2982 RMK A01 T03130157  RH  040%=      5-min Rain = 0
KTUR 192105Z 34007G12KT 32/16 A2982 RMK A01 T03160158  RH  040%=      5-min Rain = 0
KTUR 192110Z 34005G10KT 32/16 A2981 RMK A01 T03150158  RH  040%=      5-min Rain = 0
KTUR 192115Z 33006G11KT 32/16 A2981 RMK A01 T03160156  RH  039%=      5-min Rain = 0
KTUR 192120Z 30003G9KT 32/16 A2981 RMK A01 T03170156  RH  039%=      5-min Rain = 0
KTUR 192125Z 26006KT 32/15 A2981 RMK A01 T03180153  RH  038%=      5-min Rain = 0
KTUR 192130Z 29005G14KT 32/15 A2981 RMK A01 T03170153  RH  038%=      5-min Rain = 0
KTUR 192135Z 31005G13KT 31/15 A2981 RMK A01 T03140149  RH  038%=      5-min Rain = 0
KTUR 192140Z 30003KT 32/15 A2981 RMK A01 T03170151  RH  038%=      5-min Rain = 0
KTUR 192145Z 20005KT 32/15 A298 RMK A01 T03150152  RH  038%=      5-min Rain = 0
KTUR 192150Z 22003KT 32/15 A298 RMK A01 T03150147  RH  037%=      5-min Rain = 0
KTUR 192155Z 29007KT 32/16 A298 RMK A01 T03180155  RH  038%=      5-min Rain = 0
KTUR 192200Z 25006KT 32/16 A298 RMK A01 T03210158  RH  038%=      5-min Rain = 0
KTUR 192205Z 31006G12KT 32/16 A298 RMK A01 T03210158  RH  038%=      5-min Rain = 0
KTUR 192210Z 33009KT 32/16 A298 RMK A01 T03180157  RH  039%=      5-min Rain = 0
KTUR 192215Z 33008KT 32/16 A298 RMK A01 T03180158  RH  039%=      5-min Rain = 0
KTUR 192220Z 31007KT 32/16 A298 RMK A01 T03170158  RH  039%=      5-min Rain = 0
KTUR 192225Z 32005KT 32/16 A298 RMK A01 T03160156  RH  039%=      5-min Rain = 0
KTUR 192230Z 32003KT 32/16 A298 RMK A01 T03170155  RH  038%=      5-min Rain = 0
KTUR 192235Z 30002G8KT 32/16 A298 RMK A01 T03210156  RH  038%=      5-min Rain = 0
KTUR 192240Z 33005G12KT 32/16 A298 RMK A01 T03200160  RH  039%=      5-min Rain = 0
KTUR 192245Z 34003KT 32/16 A298 RMK A01 T03200156  RH  038%=      5-min Rain = 0
KTUR 192250Z 36006KT 32/16 A298 RMK A01 T03180157  RH  039%=      5-min Rain = 0
KTUR 192255Z 36007KT 32/16 A2979 RMK A01 T03190158  RH  039%=      5-min Rain = 0
KTUR 192300Z 33004KT 32/16 A2979 RMK A01 T03180157  RH  039%=      5-min Rain = 0
KTUR 192305Z 33005KT 32/16 A2979 RMK A01 T03170156  RH  039%=      5-min Rain = 0
KTUR 192310Z 00004G9KT 32/16 A2979 RMK A01 T03190159  RH  039%=      5-min Rain = 0
KTUR 192315Z 34007KT 32/16 A2979 RMK A01 T03200159  RH  039%=      5-min Rain = 0
KTUR 192320Z 35004G9KT 32/15 A2979 RMK A01 T03180154  RH  038%=      5-min Rain = 0
KTUR 192325Z 31003KT 32/16 A2979 RMK A01 T03190156  RH  038%=      5-min Rain = 0
KTUR 192330Z 34005KT 32/15 A2978 RMK A01 T03190154  RH  038%=      5-min Rain = 0
KTUR 192335Z 02004KT 32/16 A2978 RMK A01 T03190155  RH  038%=      5-min Rain = 0
KTUR 192340Z 01003KT 32/16 A2978 RMK A01 T03200155  RH  038%=      5-min Rain = 0
KTUR 192345Z 02006KT 32/15 A2978 RMK A01 T03200154  RH  038%=      5-min Rain = 0
KTUR 192350Z 01006KT 32/15 A2978 RMK A01 T03190153  RH  037%=      5-min Rain = 0
KTUR 192355Z 02005KT 32/15 A2978 RMK A01 T03180150  RH  037%=      5-min Rain = 0
KTUR 200000Z 02003KT 32/15 A2978 RMK A01 T03180150  RH  037%=      5-min Rain = 0
KTUR 200005Z 03004KT 32/15 A2978 RMK A01 T03190149  RH  037%=      5-min Rain = 0
KTUR 200010Z 04004KT 32/15 A2978 RMK A01 T03180149  RH  037%=      5-min Rain = 0
KTUR 200015Z 34003KT 32/15 A2978 RMK A01 T03190148  RH  036%=      5-min Rain = 0
KTUR 200020Z 35002KT 32/15 A2977 RMK A01 T03180147  RH  036%=      5-min Rain = 0
KTUR 200025Z 00000KT 32/15 A2977 RMK A01 T03240149  RH  035%=      5-min Rain = 0
KTUR 200030Z 00004KT 32/15 A2977 RMK A01 T03210150  RH  036%=      5-min Rain = 0
KTUR 200035Z 01004KT 32/15 A2977 RMK A01 T03170147  RH  037%=      5-min Rain = 0
KTUR 200040Z 02003KT 32/15 A2977 RMK A01 T03180147  RH  036%=      5-min Rain = 0
KTUR 200045Z 03005KT 32/15 A2977 RMK A01 T03160150  RH  038%=      5-min Rain = 0
KTUR 200050Z 05004KT 32/15 A2977 RMK A01 T03150147  RH  037%=      5-min Rain = 0
KTUR 200055Z 04004KT 32/15 A2977 RMK A01 T03150149  RH  038%=      5-min Rain = 0
KTUR 200100Z 05003KT 31/15 A2977 RMK A01 T03140146  RH  037%=      5-min Rain = 0
KTUR 200105Z 05006KT 31/15 A2977 RMK A01 T03120151  RH  039%=      5-min Rain = 0
KTUR 200110Z 05007KT 31/15 A2977 RMK A01 T03090153  RH  040%=      5-min Rain = 0
KTUR 200115Z 05007KT 31/15 A2976 RMK A01 T03070154  RH  040%=      5-min Rain = 0
KTUR 200120Z 05006KT 31/15 A2977 RMK A01 T03060152  RH  040%=      5-min Rain = 0
KTUR 200125Z 06007KT 30/15 A2977 RMK A01 T03040152  RH  041%=      5-min Rain = 0
KTUR 200130Z 07006KT 30/15 A2977 RMK A01 T03010152  RH  041%=      5-min Rain = 0
KTUR 200135Z 07006KT 30/15 A2977 RMK A01 T02980152  RH  042%=      5-min Rain = 0
KTUR 200140Z 07006KT 30/15 A2977 RMK A01 T02960152  RH  042%=      5-min Rain = 0
KTUR 200145Z 06005KT 29/15 A2977 RMK A01 T02930153  RH  044%=      5-min Rain = 0
KTUR 200150Z 06005KT 29/15 A2977 RMK A01 T02890153  RH  045%=      5-min Rain = 0
KTUR 200155Z 06005KT 29/15 A2977 RMK A01 T02870153  RH  045%=      5-min Rain = 0
KTUR 200200Z 07005KT 28/15 A2977 RMK A01 T02840154  RH  046%=      5-min Rain = 0
KTUR 200205Z 07005KT 28/15 A2977 RMK A01 T02810154  RH  047%=      5-min Rain = 0
KTUR 200210Z 07006KT 28/16 A2977 RMK A01 T02800155  RH  048%=      5-min Rain = 0
KTUR 200215Z 07005KT 28/16 A2977 RMK A01 T02780156  RH  048%=      5-min Rain = 0
KTUR 200220Z 08005KT 28/16 A2978 RMK A01 T02760156  RH  049%=      5-min Rain = 0
KTUR 200225Z 09006KT 28/16 A2978 RMK A01 T02760155  RH  049%=      5-min Rain = 0
KTUR 200230Z 08006KT 28/16 A2978 RMK A01 T02760155  RH  049%=      5-min Rain = 0
KTUR 200235Z 09006KT 27/16 A2978 RMK A01 T02730158  RH  050%=      5-min Rain = 0
KTUR 200240Z 09007KT 27/16 A2978 RMK A01 T02740159  RH  051%=      5-min Rain = 0
KTUR 200245Z 09006KT 27/16 A2978 RMK A01 T02710162  RH  052%=      5-min Rain = 0
KTUR 200250Z 08005KT 27/16 A2978 RMK A01 T02650164  RH  055%=      5-min Rain = 0
KTUR 200255Z 08006KT 26/16 A2978 RMK A01 T02630164  RH  056%=      5-min Rain = 0
KTUR 200300Z 08006KT 26/17 A2978 RMK A01 T02610166  RH  057%=      5-min Rain = 0
KTUR 200305Z 08006KT 26/17 A2978 RMK A01 T02610166  RH  057%=      5-min Rain = 0
KTUR 200310Z 09007KT 26/17 A2978 RMK A01 T02620167  RH  057%=      5-min Rain = 0
KTUR 200315Z 08006KT 26/17 A2979 RMK A01 T02610168  RH  058%=      5-min Rain = 0
KTUR 200320Z 08006KT 26/17 A2979 RMK A01 T02580168  RH  059%=      5-min Rain = 0
KTUR 200325Z 09006KT 26/17 A2979 RMK A01 T02590167  RH  058%=      5-min Rain = 0
KTUR 200330Z 08007KT 26/17 A2979 RMK A01 T02600167  RH  058%=      5-min Rain = 0
KTUR 200335Z 08007KT 26/17 A298 RMK A01 T02570168  RH  059%=      5-min Rain = 0
KTUR 200340Z 08007KT 26/17 A298 RMK A01 T02560168  RH  060%=      5-min Rain = 0
KTUR 200345Z 09006KT 26/17 A298 RMK A01 T02570167  RH  059%=      5-min Rain = 0
KTUR 200350Z 08006KT 26/17 A298 RMK A01 T02560167  RH  059%=      5-min Rain = 0
KTUR 200355Z 08006KT 25/17 A2981 RMK A01 T02540167  RH  060%=      5-min Rain = 0
KTUR 200400Z 08007KT 25/17 A2981 RMK A01 T02540167  RH  060%=      5-min Rain = 0
KTUR 200405Z 09007KT 25/17 A2981 RMK A01 T02530167  RH  060%=      5-min Rain = 0
KTUR 200410Z 11007KT 25/17 A2981 RMK A01 T02530167  RH  060%=      5-min Rain = 0
KTUR 200415Z 14005KT 25/17 A2981 RMK A01 T02470169  RH  063%=      5-min Rain = 0
KTUR 200420Z 13005KT 24/17 A2982 RMK A01 T02430171  RH  066%=      5-min Rain = 0
KTUR 200425Z 14006KT 24/17 A2982 RMK A01 T02410172  RH  067%=      5-min Rain = 0
KTUR 200430Z 14007KT 24/17 A2982 RMK A01 T02390172  RH  068%=      5-min Rain = 0
KTUR 200435Z 13007KT 24/17 A2982 RMK A01 T02380171  RH  068%=      5-min Rain = 0
KTUR 200440Z 13007KT 24/17 A2982 RMK A01 T02370170  RH  068%=      5-min Rain = 0
KTUR 200445Z 12007KT 24/17 A2982 RMK A01 T02380170  RH  067%=      5-min Rain = 0
KTUR 200450Z 12006KT 24/17 A2982 RMK A01 T02370170  RH  068%=      5-min Rain = 0
KTUR 200455Z 12006KT 24/17 A2982 RMK A01 T02350171  RH  069%=      5-min Rain = 0

Page generated in 0.014 seconds.